• Join FlightAware (Why Join?)
  • Login
  • US Flag 
09:28AM EDT


 

Airport Tracker/Info


-or-


 

Live Flight TrackerFlight Track Log ✈ ASQ4283 ✈ 05-Jul-2013 ✈ KORD - KGSP

Flight Track Log - Related Links

Times and Time Zones

All times are in EDT time to prevent confusion due to time zone crossing. See the ASQ4283 flight status page for this flight to view local times or setup timezone preferences in your user account.

Time Position Orientation Groundspeed Altitude Reporting Facility
EDT Latitude Longitude Course Direction KTS MPH feet Rate Location/Type
08:25AM 41.9000 -87.9000 173° South 215 247 3,800  Level Chicago TRACON
08:26AM 41.8139 -87.8531 158° South 253 291 7,100 2,400 Climbing Chicago Center
08:27AM 41.6472 -87.6055 156° South  Level Estimated
08:27AM 41.7442 -87.8158 158° South 266 306 9,800  Level Chicago Center
08:28AM 41.5469 -87.5942 175° South  Level FlightAware Approximate
08:28AM 41.6750 -87.7619 150° Southeast 284 327 12,100  Level Chicago Center
08:29AM 41.4635 -87.5188 159° South  Level Estimated
08:29AM 41.5986 -87.7042 151° Southeast 313 360 13,000  Level Chicago Center
08:30AM 41.3791 -87.4429 173° South  Level Estimated
08:30AM 41.5114 -87.6364 150° Southeast 356 410 14,200  Level Chicago Center
08:31AM 41.4000 -87.5697 156° South 368 423 16,100 1,620 Climbing Chicago Center
08:32AM 41.2986 -87.5511 172° South 367 422 17,600 1,440 Climbing Chicago Center
08:33AM 41.1969 -87.5336 173° South 367 422 19,100 1,440 Climbing Chicago Center
08:34AM 41.0969 -87.5056 168° South 368 423 20,600 1,500 Climbing Chicago Center
08:35AM 40.9950 -87.4786 169° South 371 427 22,200 1,500 Climbing Chicago Center
08:36AM 40.8931 -87.4503 168° South 375 432 23,700 1,500 Climbing Chicago Center
08:37AM 40.7906 -87.4242 169° South 377 434 25,300 1,500 Climbing Chicago Center
08:38AM 40.6897 -87.3933 167° South 374 430 26,800 1,440 Climbing Chicago Center
08:39AM 40.5939 -87.3536 163° South 365 420 28,300 1,440 Climbing Chicago Center
08:40AM 40.4986 -87.3175 164° South 358 412 29,800 1,620 Climbing Chicago Center
08:41AM 40.3869 -87.2747 164° South 355 409 31,700 1,620 Climbing Chicago Center
08:42AM 40.2950 -87.2367 162° South 350 403 33,200 1,380 Climbing Chicago Center
08:43AM 40.2036 -87.2025 164° South 343 395 34,600 840 Climbing Chicago Center
08:44AM 40.1131 -87.1650 162° South 345 397 35,000 180 Climbing Chicago Center
08:45AM 40.0336 -87.1353 164° South 360 414 35,000  Level Indianapolis Center
08:46AM 39.9436 -87.0803 155° Southeast 364 419 35,000  Level Indianapolis Center
08:47AM 39.8592 -87.0097 147° Southeast 364 419 35,000  Level Indianapolis Center
08:48AM 39.7592 -86.9267 147° Southeast 359 413 35,000  Level Indianapolis Center
08:49AM 39.6767 -86.8569 147° Southeast 357 411 35,000  Level Indianapolis Center
08:50AM 39.5944 -86.7886 147° Southeast 354 407 35,000  Level Indianapolis Center
08:51AM 39.5128 -86.7217 148° Southeast 352 405 35,000 180 Level Indianapolis Center
08:52AM 39.4322 -86.6533 147° Southeast 350 403 35,400 660 Climbing Indianapolis Center
08:53AM 39.3492 -86.5853 148° Southeast 355 409 36,400 780 Climbing Indianapolis Center
08:54AM 39.2661 -86.5167 147° Southeast 357 411 37,000 240 Climbing Indianapolis Center
08:56AM 39.1619 -86.4308 147° Southeast 369 425 37,000  Level Indianapolis Center
08:57AM 39.0758 -86.3606 148° Southeast 369 425 37,000  Level Indianapolis Center
08:58AM 38.9869 -86.2872 147° Southeast 379 436 37,000  Level Indianapolis Center
08:59AM 38.9008 -86.2050 143° Southeast 388 447 37,000  Level Indianapolis Center
09:00AM 38.8283 -86.1203 138° Southeast 390 449 37,000  Level Indianapolis Center
09:01AM 38.7297 -86.0067 138° Southeast 394 453 37,000  Level Indianapolis Center
09:02AM 38.6483 -85.9128 138° Southeast 392 451 37,000  Level Indianapolis Center
09:03AM 38.5689 -85.8208 138° Southeast 385 443 37,000  Level Indianapolis Center
09:04AM 38.4889 -85.7292 138° Southeast 384 442 37,000  Level Indianapolis Center
09:05AM 38.4086 -85.6378 138° Southeast 383 441 37,000  Level Indianapolis Center
09:06AM 38.3292 -85.5461 138° Southeast 383 441 37,000  Level Indianapolis Center
09:07AM 38.2492 -85.4558 138° Southeast 381 438 37,000  Level Indianapolis Center
09:08AM 38.1694 -85.3647 138° Southeast 382 440 37,000  Level Indianapolis Center
09:09AM 38.0886 -85.2742 139° Southeast 385 443 37,000  Level Indianapolis Center
09:10AM 38.0003 -85.1764 139° Southeast 386 444 37,000  Level Indianapolis Center
09:11AM 37.9200 -85.0861 138° Southeast 386 444 37,000  Level Indianapolis Center
09:12AM 37.8389 -84.9975 139° Southeast 385 443 37,000  Level Indianapolis Center
09:13AM 37.7597 -84.9050 137° Southeast 387 445 37,000  Level Indianapolis Center
09:14AM 37.6781 -84.8158 139° Southeast 387 445 37,000  Level Indianapolis Center
09:15AM 37.5969 -84.7264 139° Southeast 388 447 37,000  Level Indianapolis Center
09:16AM 37.5014 -84.6231 139° Southeast 388 447 37,000  Level Indianapolis Center
09:17AM 37.4206 -84.5328 138° Southeast 388 447 37,000 -60 Level Indianapolis Center
09:18AM 37.3386 -84.4419 139° Southeast 392 451 36,900 -780 Descending Indianapolis Center
09:19AM 37.2567 -84.3531 139° Southeast 390 449 35,500 -1,200 Descending Indianapolis Center
09:20AM 37.1761 -84.2658 139° Southeast 384 442 34,500 -960 Descending Indianapolis Center
09:21AM 37.0947 -84.1775 139° Southeast 384 442 33,600 -1,440 Descending Indianapolis Center
09:22AM 37.0156 -84.0864 137° Southeast 386 444 31,600 -1,980 Descending Indianapolis Center
09:23AM 36.9444 -83.9869 132° Southeast 385 443 29,600 -2,100 Descending Indianapolis Center
09:24AM 36.8617 -83.8717 132° Southeast 381 438 27,300 -2,280 Descending Indianapolis Center
09:25AM 36.7892 -83.7708 132° Southeast 389 448 25,000 -1,620 Descending Indianapolis Center
09:26AM 36.7192 -83.6744 132° Southeast 380 437 24,000 -540 Descending Indianapolis Center
09:27AM 36.6472 -83.5747 132° Southeast 384 442 24,000  Level Indianapolis Center
09:28AM 36.5753 -83.4753 132° Southeast 387 445 24,000  Level Indianapolis Center
09:29AM 36.5028 -83.3783 133° Southeast 385 443 24,000  Level Indianapolis Center
09:30AM 36.4308 -83.2786 132° Southeast 388 447 24,000 -840 Level Indianapolis Center
09:31AM 36.3467 -83.1644 132° Southeast 384 442 22,400 -1,800 Descending Indianapolis Center
09:32AM 36.2750 -83.0672 132° Southeast 383 441 20,400 -1,620 Descending Indianapolis Center
09:33AM 36.2061 -82.9744 133° Southeast 370 426 19,100 -720 Descending Indianapolis Center
09:34AM 36.1383 -82.8825 132° Southeast 362 417 19,000 -840 Descending Indianapolis Center
09:35AM 36.0739 -82.7942 132° Southeast 349 402 17,500 -1,680 Descending Indianapolis Center
09:36AM 36.0128 -82.7175 135° Southeast 318 366 15,600 -1,260 Descending Indianapolis Center
09:37AM 35.9431 -82.6672 150° Southeast 293 337 15,000 -480 Descending Indianapolis Center
09:39AM 35.8539 -82.6014 149° Southeast 299 344 14,600 -660 Descending Atlanta Center
09:40AM 35.7844 -82.5514 150° Southeast 299 344 13,600 -1,020 Descending Atlanta Center
09:41AM 35.7086 -82.4914 147° Southeast 299 344 12,600 -1,020 Descending Atlanta Center
09:42AM 35.6347 -82.4392 150° Southeast 299 344 11,600 -960 Descending Atlanta Center
09:43AM 35.5611 -82.3844 149° Southeast 306 352 10,700 -840 Descending Atlanta Center
09:44AM 35.4833 -82.3428 156° South 306 352 10,000 -300 Descending Atlanta Center
09:45AM 35.4058 -82.3289 172° South 294 338 10,100 -360 Climbing Atlanta Center
09:46AM 35.3286 -82.3128 170° South 289 333 9,300 -1,140 Descending Atlanta Center
09:47AM 35.2694 -82.2758 153° Southeast 254 292 7,900 -1,500 Descending Atlanta Center
09:48AM 35.2189 -82.2311 144° Southeast 231 266 6,400 -1,500 Descending Atlanta Center
09:50AM 35.0337 -82.2252 158° South  Level FlightAware Approximate
09:57AM 34.8957 -82.2189 180° South  Level Estimated